Time;durP1;ratioP1;P1;durP2;ratioP2;P2;SDS_P1;SDS_P2;PMS_P1;PMS_P2;Temp;Humidity;BMP_temperature;BMP_pressure;BME280_temperature;BME280_humidity;BME280_pressure;Samples;Min_cycle;Max_cycle;Signal;HPM_P1;HPM_P2
2023/12/09 00:01:25;;;;;;;26.33;12.25;;;4.50;99.90;;;;;;5044976;28;20044;-65
2023/12/09 00:03:51;;;;;;;24.83;11.80;;;4.50;99.90;;;;;;5045481;28;20039;-65
2023/12/09 00:06:19;;;;;;;26.92;12.43;;;4.50;99.90;;;;;;5045432;28;20633;-65
2023/12/09 00:08:46;;;;;;;27.45;13.68;;;4.50;99.90;;;;;;5045173;28;20090;-65
2023/12/09 00:11:12;;;;;;;26.25;13.18;;;4.50;99.90;;;;;;5044485;28;20064;-65
2023/12/09 00:13:38;;;;;;;24.95;12.05;;;4.50;99.90;;;;;;5044480;28;20075;-65
2023/12/09 00:16:04;;;;;;;27.63;12.88;;;4.50;99.90;;;;;;5044779;28;20049;-65
2023/12/09 00:18:30;;;;;;;27.73;12.55;;;4.50;99.90;;;;;;5044963;28;20552;-65
2023/12/09 00:20:56;;;;;;;28.83;12.77;;;4.50;99.90;;;;;;5044729;28;20078;-65
2023/12/09 00:23:22;;;;;;;27.70;13.63;;;4.50;99.90;;;;;;5045886;28;20028;-64
2023/12/09 00:25:48;;;;;;;32.17;13.52;;;4.50;99.90;;;;;;5044529;28;20028;-65
2023/12/09 00:28:14;;;;;;;27.85;12.65;;;4.50;99.90;;;;;;5044324;28;20044;-65
2023/12/09 00:30:40;;;;;;;29.90;13.18;;;4.60;99.90;;;;;;5044637;28;20108;-65
2023/12/09 00:33:05;;;;;;;25.83;11.52;;;4.50;99.90;;;;;;5045130;28;20144;-65
2023/12/09 00:35:31;;;;;;;27.67;13.20;;;4.50;99.90;;;;;;5044613;28;20669;-65
2023/12/09 00:37:57;;;;;;;27.33;12.73;;;4.50;99.90;;;;;;5043045;28;20041;-65
2023/12/09 00:40:23;;;;;;;24.85;11.75;;;4.50;99.90;;;;;;5044659;28;20036;-65
2023/12/09 00:42:49;;;;;;;26.38;12.25;;;4.50;99.90;;;;;;5044818;28;20063;-65
2023/12/09 00:45:15;;;;;;;25.38;11.50;;;4.60;99.90;;;;;;5044814;28;20033;-65
2023/12/09 00:47:41;;;;;;;27.20;13.13;;;4.60;99.90;;;;;;5047543;28;20041;-65
2023/12/09 00:50:07;;;;;;;28.48;13.90;;;4.60;99.90;;;;;;5045254;28;20162;-65
2023/12/09 00:52:34;;;;;;;25.05;11.63;;;4.60;99.90;;;;;;5044660;28;20039;-64
2023/12/09 00:55:01;;;;;;;30.25;13.52;;;4.60;99.90;;;;;;5043215;28;20040;-64
2023/12/09 00:57:28;;;;;;;24.42;12.88;;;4.70;99.90;;;;;;5044766;28;20060;-65
2023/12/09 00:59:53;;;;;;;26.38;12.48;;;4.70;99.90;;;;;;5044517;28;20036;-65
2023/12/09 01:02:19;;;;;;;27.77;12.60;;;4.70;99.90;;;;;;5041880;28;20033;-65
2023/12/09 01:04:45;;;;;;;25.65;11.45;;;4.60;99.90;;;;;;5043169;28;20036;-64
2023/12/09 01:07:11;;;;;;;27.23;12.23;;;4.70;99.90;;;;;;5043602;28;20032;-65
2023/12/09 01:09:37;;;;;;;26.90;13.15;;;4.70;99.90;;;;;;5043992;28;20787;-65
2023/12/09 01:12:03;;;;;;;27.05;11.73;;;4.70;99.90;;;;;;5044721;28;20686;-65
2023/12/09 01:14:29;;;;;;;25.58;11.38;;;4.70;99.90;;;;;;5044813;28;20032;-65
2023/12/09 01:16:55;;;;;;;27.10;12.35;;;4.70;99.90;;;;;;5044554;28;20047;-65
2023/12/09 01:19:21;;;;;;;23.88;12.07;;;4.70;99.90;;;;;;5044145;28;20378;-65
2023/12/09 01:21:47;;;;;;;31.88;13.18;;;4.70;99.90;;;;;;5042859;28;20033;-65
2023/12/09 01:24:13;;;;;;;29.50;13.93;;;4.70;99.90;;;;;;5045851;28;20025;-65
2023/12/09 01:26:39;;;;;;;28.65;13.45;;;4.70;99.90;;;;;;5047511;28;20036;-65
2023/12/09 01:29:05;;;;;;;26.85;12.25;;;4.70;99.90;;;;;;5048592;28;20408;-65
2023/12/09 01:31:31;;;;;;;27.65;13.23;;;4.80;99.90;;;;;;5048627;28;20028;-65
2023/12/09 01:33:57;;;;;;;26.33;12.68;;;4.70;99.90;;;;;;5046885;28;20079;-65
2023/12/09 01:36:23;;;;;;;27.52;13.02;;;4.80;99.90;;;;;;5039780;28;20818;-65
2023/12/09 01:38:49;;;;;;;25.85;12.88;;;4.80;99.90;;;;;;5045550;28;20033;-65
2023/12/09 01:41:15;;;;;;;25.90;12.10;;;4.80;99.90;;;;;;5046333;28;20139;-65
2023/12/09 01:43:41;;;;;;;27.67;12.27;;;4.80;99.90;;;;;;5043061;28;20025;-65
2023/12/09 01:46:10;;;;;;;28.52;13.35;;;4.80;99.90;;;;;;5046003;28;20040;-65
2023/12/09 01:48:37;;;;;;;25.65;12.98;;;4.80;99.90;;;;;;5047988;28;20409;-64
2023/12/09 01:51:04;;;;;;;25.95;12.50;;;4.80;99.90;;;;;;5047047;28;20049;-65
2023/12/09 01:53:31;;;;;;;28.67;12.38;;;4.70;99.90;;;;;;5047684;28;20404;-65
2023/12/09 01:56:05;;;;;;;26.00;12.43;;;4.80;99.90;;;;;;5047773;28;20115;-65
2023/12/09 01:58:34;;;;;;;30.52;12.90;;;4.80;99.90;;;;;;5048155;28;20102;-65
2023/12/09 02:01:00;;;;;;;34.97;16.42;;;4.80;99.90;;;;;;5047583;28;20029;-65
2023/12/09 02:03:26;;;;;;;27.58;13.32;;;4.80;99.90;;;;;;5048330;28;20033;-65
2023/12/09 02:05:51;;;;;;;29.90;14.50;;;4.80;99.90;;;;;;5047762;28;20484;-64
2023/12/09 02:08:17;;;;;;;29.83;13.98;;;4.70;99.90;;;;;;5046145;28;20079;-65
2023/12/09 02:10:48;;;;;;;29.73;13.90;;;4.80;99.90;;;;;;5047503;28;20060;-65
2023/12/09 02:13:23;;;;;;;29.75;13.52;;;4.80;99.90;;;;;;5047851;28;20025;-64
2023/12/09 02:16:09;;;;;;;25.85;11.23;;;4.80;99.90;;;;;;5048581;28;20071;-65
2023/12/09 02:18:35;;;;;;;30.38;13.52;;;4.70;99.90;;;;;;5047201;28;20502;-65
2023/12/09 02:21:01;;;;;;;32.05;13.45;;;4.70;99.90;;;;;;5045574;28;20029;-65
2023/12/09 02:23:27;;;;;;;26.20;11.90;;;4.80;99.90;;;;;;5047150;28;20514;-65
2023/12/09 02:25:59;;;;;;;35.25;14.43;;;4.80;99.90;;;;;;5047012;28;20024;-65
2023/12/09 02:28:27;;;;;;;32.47;14.20;;;4.80;99.90;;;;;;5047262;28;20044;-65
2023/12/09 02:31:02;;;;;;;34.13;14.40;;;4.70;99.90;;;;;;5046956;28;20427;-65
2023/12/09 02:33:29;;;;;;;33.43;13.57;;;4.70;99.90;;;;;;5046858;28;20033;-65
2023/12/09 02:35:56;;;;;;;28.67;14.23;;;4.80;99.90;;;;;;5047155;28;20282;-65
2023/12/09 02:38:24;;;;;;;33.28;14.57;;;4.80;99.90;;;;;;5047116;28;20564;-65
2023/12/09 02:40:50;;;;;;;35.15;14.88;;;4.70;99.90;;;;;;5046109;28;20062;-65
2023/12/09 02:43:16;;;;;;;36.15;15.85;;;4.70;99.90;;;;;;5047200;28;20430;-65
2023/12/09 02:45:45;;;;;;;35.00;15.32;;;4.70;99.90;;;;;;5047060;28;20033;-65
2023/12/09 02:48:11;;;;;;;32.67;15.20;;;4.70;99.90;;;;;;5046980;28;20033;-65
2023/12/09 02:50:37;;;;;;;34.25;14.90;;;4.70;99.90;;;;;;5063548;28;20052;-65
2023/12/09 02:53:03;;;;;;;33.80;16.17;;;4.70;99.90;;;;;;5067004;28;20167;-65
2023/12/09 02:55:30;;;;;;;35.83;15.35;;;4.70;99.90;;;;;;5067005;28;20077;-65
2023/12/09 02:57:56;;;;;;;36.60;15.10;;;4.70;99.90;;;;;;5066467;28;20086;-65
2023/12/09 03:00:22;;;;;;;37.70;14.23;;;4.70;99.90;;;;;;5048093;28;20480;-65
2023/12/09 03:02:47;;;;;;;34.13;14.95;;;4.80;99.90;;;;;;5046869;28;20190;-65
2023/12/09 03:05:13;;;;;;;31.38;14.93;;;4.80;99.90;;;;;;5046435;28;20481;-65
2023/12/09 03:07:39;;;;;;;36.05;15.02;;;4.90;99.90;;;;;;5046458;28;20029;-65
2023/12/09 03:10:05;;;;;;;32.00;13.50;;;4.90;99.90;;;;;;5045917;28;20033;-65
2023/12/09 03:12:31;;;;;;;29.88;12.95;;;4.90;99.90;;;;;;5046097;28;20045;-65
2023/12/09 03:14:57;;;;;;;38.97;14.48;;;4.90;99.90;;;;;;5046184;28;20123;-65
2023/12/09 03:17:24;;;;;;;36.50;13.55;;;4.90;99.90;;;;;;5046228;28;20056;-65
2023/12/09 03:19:50;;;;;;;33.58;14.48;;;4.90;99.90;;;;;;5046495;28;20029;-64
2023/12/09 03:22:15;;;;;;;39.05;15.10;;;4.90;99.90;;;;;;5046211;28;20515;-64
2023/12/09 03:24:43;;;;;;;38.75;15.35;;;4.90;99.90;;;;;;5046219;28;20036;-67
2023/12/09 03:27:09;;;;;;;39.53;14.52;;;5.00;99.90;;;;;;5045841;28;20106;-65
2023/12/09 03:29:36;;;;;;;38.67;15.38;;;5.00;99.90;;;;;;5046204;28;20033;-65
2023/12/09 03:32:02;;;;;;;38.80;17.50;;;5.00;99.90;;;;;;5046018;28;20041;-65
2023/12/09 03:34:28;;;;;;;33.17;13.73;;;5.00;99.90;;;;;;5046247;28;20033;-65
2023/12/09 03:36:53;;;;;;;38.47;14.77;;;5.00;99.90;;;;;;5045962;28;20048;-65
2023/12/09 03:39:19;;;;;;;38.70;14.35;;;5.00;99.90;;;;;;5046134;28;20060;-65
2023/12/09 03:41:45;;;;;;;44.33;16.42;;;5.00;99.90;;;;;;5044000;28;20034;-63
2023/12/09 03:44:11;;;;;;;43.28;17.35;;;5.00;99.90;;;;;;5019537;28;20029;-65
2023/12/09 03:46:37;;;;;;;46.35;16.10;;;4.90;99.90;;;;;;5044813;28;20036;-65
2023/12/09 03:49:03;;;;;;;34.97;13.65;;;4.90;99.90;;;;;;5045068;28;20033;-65
2023/12/09 03:51:29;;;;;;;41.90;15.55;;;4.90;99.90;;;;;;5045002;28;20033;-65
2023/12/09 03:53:54;;;;;;;41.80;16.58;;;4.90;99.90;;;;;;5045425;28;20029;-65
2023/12/09 03:56:21;;;;;;;43.30;16.30;;;4.90;99.90;;;;;;5045166;28;20439;-65
2023/12/09 03:58:48;;;;;;;43.53;16.17;;;4.90;99.90;;;;;;5044678;28;20037;-65
2023/12/09 04:01:14;;;;;;;42.90;17.15;;;4.90;99.90;;;;;;5045349;28;20033;-65
2023/12/09 04:03:40;;;;;;;48.95;17.02;;;5.00;99.90;;;;;;5045272;28;20029;-65
2023/12/09 04:06:06;;;;;;;44.58;16.63;;;4.90;99.90;;;;;;5051972;28;20906;-65
2023/12/09 04:08:32;;;;;;;49.65;15.32;;;4.80;99.90;;;;;;5063920;28;20059;-65
2023/12/09 04:10:58;;;;;;;40.03;16.00;;;4.80;99.90;;;;;;5064177;28;20115;-65
2023/12/09 04:13:24;;;;;;;43.13;16.15;;;4.80;99.90;;;;;;5055078;28;20056;-66
2023/12/09 04:15:50;;;;;;;48.97;17.02;;;4.90;99.90;;;;;;5044819;28;20041;-65
2023/12/09 04:18:17;;;;;;;44.45;16.75;;;4.90;99.90;;;;;;5045506;28;20068;-65
2023/12/09 04:20:43;;;;;;;41.95;14.65;;;4.90;99.90;;;;;;5045235;28;20029;-66
2023/12/09 04:23:08;;;;;;;48.40;17.00;;;5.00;99.90;;;;;;5045158;28;20036;-65
2023/12/09 04:25:35;;;;;;;38.42;15.20;;;5.00;99.90;;;;;;5045187;28;20037;-65
2023/12/09 04:28:01;;;;;;;42.78;16.50;;;5.00;99.90;;;;;;5045416;28;20028;-65
2023/12/09 04:30:28;;;;;;;40.88;14.82;;;5.00;99.90;;;;;;5044938;28;20037;-65
2023/12/09 04:32:54;;;;;;;33.15;14.38;;;5.00;99.90;;;;;;5045314;28;20033;-66
2023/12/09 04:35:19;;;;;;;47.33;16.83;;;5.10;99.90;;;;;;5045391;28;20075;-66
2023/12/09 04:37:45;;;;;;;37.38;15.55;;;5.10;99.90;;;;;;5045182;28;20532;-66
2023/12/09 04:40:11;;;;;;;31.05;14.27;;;5.10;99.90;;;;;;5044713;28;20400;-65
2023/12/09 04:42:38;;;;;;;39.50;15.85;;;5.10;99.90;;;;;;5044752;28;20573;-66
2023/12/09 04:45:05;;;;;;;36.60;15.85;;;5.10;99.90;;;;;;5045091;28;20025;-66
2023/12/09 04:47:31;;;;;;;35.67;14.45;;;5.20;99.90;;;;;;5045227;28;20048;-66
2023/12/09 04:49:57;;;;;;;34.63;13.70;;;5.20;99.90;;;;;;5044726;28;20110;-65
2023/12/09 04:52:23;;;;;;;39.42;16.65;;;5.20;99.90;;;;;;5045017;28;20036;-66
2023/12/09 04:54:49;;;;;;;37.05;15.30;;;5.30;99.90;;;;;;5045020;28;20037;-65
2023/12/09 04:57:15;;;;;;;33.88;14.38;;;5.20;99.90;;;;;;5047641;28;20021;-66
2023/12/09 04:59:43;;;;;;;35.05;15.27;;;5.20;99.90;;;;;;5047913;28;20676;-66
2023/12/09 05:02:08;;;;;;;40.22;16.15;;;5.30;99.90;;;;;;5048462;28;20613;-66
2023/12/09 05:04:34;;;;;;;30.17;14.15;;;5.20;99.90;;;;;;5048796;28;20033;-65
2023/12/09 05:07:00;;;;;;;31.35;13.80;;;5.20;99.90;;;;;;5048906;28;20029;-66
2023/12/09 05:09:26;;;;;;;35.17;14.77;;;5.20;99.90;;;;;;5048763;28;20037;-66
2023/12/09 05:11:52;;;;;;;36.97;15.05;;;5.30;99.90;;;;;;5048314;28;20021;-66
2023/12/09 05:14:18;;;;;;;28.42;12.88;;;5.30;99.90;;;;;;5048585;28;20037;-66
2023/12/09 05:16:44;;;;;;;35.38;15.27;;;5.30;99.90;;;;;;5048396;28;20056;-66
2023/12/09 05:19:10;;;;;;;33.95;14.85;;;5.30;99.90;;;;;;5048592;28;20033;-66
2023/12/09 05:21:36;;;;;;;35.35;13.68;;;5.30;99.90;;;;;;5048124;28;20040;-66
2023/12/09 05:24:04;;;;;;;37.20;15.07;;;5.30;99.90;;;;;;5046725;28;20028;-66
2023/12/09 05:26:30;;;;;;;32.15;14.43;;;5.30;99.90;;;;;;5048203;28;20036;-65
2023/12/09 05:28:56;;;;;;;33.42;13.55;;;5.30;99.90;;;;;;5048598;28;20110;-66
2023/12/09 05:31:23;;;;;;;34.33;13.68;;;5.30;99.90;;;;;;5047994;28;20040;-66
2023/12/09 05:33:49;;;;;;;27.63;12.80;;;5.20;99.90;;;;;;5047045;28;20032;-66
2023/12/09 05:36:15;;;;;;;34.95;15.00;;;5.30;99.90;;;;;;5048384;28;20037;-66
2023/12/09 05:38:42;;;;;;;34.63;14.57;;;5.30;99.90;;;;;;5048224;28;20033;-65
2023/12/09 05:41:08;;;;;;;35.83;14.48;;;5.30;99.90;;;;;;5047939;28;20171;-66
2023/12/09 05:43:38;;;;;;;30.25;13.45;;;5.30;99.90;;;;;;5048344;28;20037;-65
2023/12/09 05:46:05;;;;;;;28.70;13.23;;;5.30;99.90;;;;;;5048328;28;20104;-65
2023/12/09 05:48:33;;;;;;;32.45;13.02;;;5.30;99.90;;;;;;5041960;28;20029;-66
2023/12/09 05:50:59;;;;;;;31.10;14.57;;;5.30;99.90;;;;;;5044649;28;20043;-66
2023/12/09 05:53:25;;;;;;;30.42;13.35;;;5.30;99.90;;;;;;5048146;28;20048;-66
2023/12/09 05:55:52;;;;;;;28.85;13.00;;;5.30;99.90;;;;;;5047815;28;20785;-66
2023/12/09 05:58:18;;;;;;;31.42;13.38;;;5.30;99.90;;;;;;5047817;28;20116;-66
2023/12/09 06:00:44;;;;;;;26.48;12.32;;;5.40;99.90;;;;;;5047714;28;20021;-66
2023/12/09 06:03:10;;;;;;;27.98;13.45;;;5.40;99.90;;;;;;5047618;28;20282;-66
2023/12/09 06:05:36;;;;;;;32.30;14.00;;;5.40;99.90;;;;;;5047644;28;20116;-65
2023/12/09 06:08:02;;;;;;;24.27;11.80;;;5.40;99.90;;;;;;5047769;28;20107;-65
2023/12/09 06:10:27;;;;;;;25.23;11.32;;;5.30;99.90;;;;;;5046842;28;20485;-65
2023/12/09 06:12:53;;;;;;;34.83;13.75;;;5.40;99.90;;;;;;5047461;28;20041;-65
2023/12/09 06:15:19;;;;;;;33.20;14.23;;;5.40;99.90;;;;;;5047538;28;20032;-66
2023/12/09 06:17:45;;;;;;;29.02;13.70;;;5.40;99.90;;;;;;5047110;28;20528;-65
2023/12/09 06:20:11;;;;;;;29.60;13.40;;;5.40;99.90;;;;;;5047428;28;20036;-65
2023/12/09 06:22:37;;;;;;;30.27;14.13;;;5.40;99.90;;;;;;5048609;28;20040;-66
2023/12/09 06:25:03;;;;;;;35.28;15.77;;;5.30;99.90;;;;;;5047582;28;20021;-65
2023/12/09 06:27:28;;;;;;;27.90;13.95;;;5.30;99.90;;;;;;5046942;28;20044;-66
2023/12/09 06:29:54;;;;;;;30.17;13.82;;;5.30;99.90;;;;;;5047419;28;20037;-65
2023/12/09 06:32:20;;;;;;;36.33;15.23;;;5.30;99.90;;;;;;5046807;28;20044;-66
2023/12/09 06:34:46;;;;;;;35.97;15.52;;;5.30;99.90;;;;;;5047001;28;20037;-65
2023/12/09 06:37:12;;;;;;;34.50;14.93;;;5.30;99.90;;;;;;5046805;28;20740;-65
2023/12/09 06:39:38;;;;;;;32.20;15.48;;;5.30;99.90;;;;;;5046993;28;20080;-66
2023/12/09 06:42:05;;;;;;;31.83;14.90;;;5.30;99.90;;;;;;5046879;28;20055;-66
2023/12/09 06:44:31;;;;;;;33.42;15.68;;;5.30;99.90;;;;;;5047114;28;20033;-66
2023/12/09 06:46:57;;;;;;;30.95;15.00;;;5.30;99.90;;;;;;5045264;28;20035;-66
2023/12/09 06:49:23;;;;;;;27.45;14.15;;;5.20;99.90;;;;;;5046820;28;20032;-66
2023/12/09 06:51:49;;;;;;;35.45;15.02;;;5.30;99.90;;;;;;5046694;28;20091;-65
2023/12/09 06:54:16;;;;;;;34.75;16.02;;;5.30;99.90;;;;;;5045381;28;20662;-65
2023/12/09 06:56:42;;;;;;;32.97;15.90;;;5.20;99.90;;;;;;5046823;28;20061;-65
2023/12/09 06:59:08;;;;;;;36.40;15.75;;;5.10;99.90;;;;;;5046788;28;20067;-65
2023/12/09 07:01:33;;;;;;;34.22;15.98;;;5.10;99.90;;;;;;5046833;28;20056;-65
2023/12/09 07:04:00;;;;;;;35.35;16.00;;;5.10;99.90;;;;;;5056852;28;20028;-65
2023/12/09 07:06:27;;;;;;;31.35;14.20;;;5.00;99.90;;;;;;5066751;28;20071;-66
2023/12/09 07:08:54;;;;;;;34.28;13.50;;;5.00;99.90;;;;;;5066365;28;20032;-65
2023/12/09 07:11:22;;;;;;;32.33;13.20;;;4.90;99.90;;;;;;5066309;28;20032;-65
2023/12/09 07:13:48;;;;;;;28.63;13.77;;;4.90;99.90;;;;;;5066207;28;20079;-66
2023/12/09 07:16:15;;;;;;;26.55;12.38;;;5.00;99.90;;;;;;5065759;28;20422;-66
2023/12/09 07:18:46;;;;;;;32.92;13.52;;;5.00;99.90;;;;;;5065747;28;20024;-66
2023/12/09 07:21:13;;;;;;;29.60;13.93;;;5.10;99.90;;;;;;5065271;28;20479;-65
2023/12/09 07:23:38;;;;;;;30.00;13.40;;;5.10;99.90;;;;;;5066010;28;20125;-66
2023/12/09 07:26:04;;;;;;;33.10;15.50;;;5.10;99.90;;;;;;5066176;28;20071;-66
2023/12/09 07:28:30;;;;;;;34.88;15.93;;;5.20;99.90;;;;;;5066190;28;20028;-66
2023/12/09 07:30:56;;;;;;;28.58;13.05;;;5.20;99.90;;;;;;5065815;28;20039;-66
2023/12/09 07:33:23;;;;;;;31.80;14.23;;;5.20;99.90;;;;;;5065960;28;20047;-65
2023/12/09 07:35:49;;;;;;;30.13;13.50;;;5.20;99.90;;;;;;5064439;28;20720;-66
2023/12/09 07:38:15;;;;;;;30.95;13.50;;;5.30;99.90;;;;;;5065491;28;20039;-65
2023/12/09 07:40:41;;;;;;;31.33;14.35;;;5.40;99.90;;;;;;5065966;28;20826;-66
2023/12/09 07:43:08;;;;;;;27.17;12.45;;;5.40;99.90;;;;;;5066017;28;20051;-66
2023/12/09 07:45:34;;;;;;;31.27;14.25;;;5.40;99.90;;;;;;5065817;28;20117;-66
2023/12/09 07:48:03;;;;;;;34.42;14.82;;;5.50;99.90;;;;;;5066250;28;20032;-65
2023/12/09 07:50:34;;;;;;;26.70;14.15;;;5.40;99.90;;;;;;5065753;28;20032;-66
2023/12/09 07:53:02;;;;;;;30.10;13.88;;;5.20;99.90;;;;;;5065374;28;20206;-66
2023/12/09 07:55:28;;;;;;;36.03;15.13;;;5.20;99.90;;;;;;5050512;28;20036;-66
2023/12/09 07:57:53;;;;;;;27.52;13.65;;;5.20;99.90;;;;;;5041760;28;20067;-65
2023/12/09 08:00:19;;;;;;;31.58;13.73;;;5.30;99.90;;;;;;5044986;28;20044;-66
2023/12/09 08:02:45;;;;;;;28.02;14.18;;;5.40;99.90;;;;;;5045560;28;20033;-65
2023/12/09 08:05:11;;;;;;;31.80;14.05;;;5.50;99.90;;;;;;5045691;28;20132;-66
2023/12/09 08:07:37;;;;;;;30.50;13.50;;;5.50;99.90;;;;;;5045297;28;20041;-66
2023/12/09 08:10:03;;;;;;;32.50;15.80;;;5.60;99.90;;;;;;5045592;28;20093;-66
2023/12/09 08:12:31;;;;;;;27.83;13.40;;;5.60;99.90;;;;;;5044932;28;20037;-66
2023/12/09 08:14:57;;;;;;;27.02;12.55;;;5.70;99.90;;;;;;5045182;28;20135;-66
2023/12/09 08:17:23;;;;;;;25.60;13.00;;;5.70;99.90;;;;;;5045221;28;20697;-66
2023/12/09 08:19:48;;;;;;;25.60;12.63;;;5.70;99.90;;;;;;5044074;28;20040;-66
2023/12/09 08:22:14;;;;;;;29.88;13.80;;;5.70;99.90;;;;;;5043920;28;20478;-66
2023/12/09 08:24:40;;;;;;;30.20;14.25;;;5.70;99.90;;;;;;5045426;28;20025;-65
2023/12/09 08:27:06;;;;;;;30.58;13.95;;;5.80;99.90;;;;;;5045188;28;20428;-66
2023/12/09 08:29:32;;;;;;;29.52;13.93;;;5.90;99.90;;;;;;5045353;28;20064;-66
2023/12/09 08:31:58;;;;;;;29.42;13.35;;;5.90;99.90;;;;;;5046257;28;20115;-66
2023/12/09 08:34:24;;;;;;;27.73;12.82;;;5.90;99.90;;;;;;5049519;28;20760;-66
2023/12/09 08:36:50;;;;;;;28.38;13.63;;;5.90;99.90;;;;;;5048966;28;20033;-66
2023/12/09 08:39:17;;;;;;;27.83;13.57;;;6.00;99.90;;;;;;5049270;28;20090;-66
2023/12/09 08:41:44;;;;;;;30.83;13.95;;;6.00;99.90;;;;;;5048935;28;20033;-66
2023/12/09 08:44:10;;;;;;;25.88;12.55;;;6.10;99.90;;;;;;5049051;28;20035;-66
2023/12/09 08:46:36;;;;;;;26.38;13.52;;;6.10;99.90;;;;;;5049110;28;20120;-66
2023/12/09 08:49:02;;;;;;;26.83;13.32;;;6.10;99.90;;;;;;5049015;28;20064;-66
2023/12/09 08:51:29;;;;;;;22.55;11.98;;;6.20;99.90;;;;;;5048975;28;20048;-66
2023/12/09 08:53:55;;;;;;;26.92;12.63;;;6.20;99.90;;;;;;5048793;28;20033;-65
2023/12/09 08:56:21;;;;;;;27.95;12.82;;;6.20;99.90;;;;;;5048872;28;20067;-66
2023/12/09 08:58:47;;;;;;;23.30;10.30;;;6.20;99.90;;;;;;5048696;28;20560;-66
2023/12/09 09:01:12;;;;;;;24.05;11.75;;;6.20;99.90;;;;;;5048491;28;20037;-66
2023/12/09 09:03:38;;;;;;;27.08;12.63;;;6.20;99.90;;;;;;5049248;28;20057;-66
2023/12/09 09:06:05;;;;;;;21.77;11.15;;;6.30;99.90;;;;;;5047657;28;20025;-66
2023/12/09 09:08:31;;;;;;;25.85;12.18;;;6.30;99.90;;;;;;5064935;28;20110;-66
2023/12/09 09:10:57;;;;;;;24.60;12.43;;;6.30;99.90;;;;;;5068579;28;20036;-65
2023/12/09 09:13:23;;;;;;;27.75;12.30;;;6.30;99.90;;;;;;5057870;28;20021;-66
2023/12/09 09:15:50;;;;;;;22.75;10.63;;;6.30;99.90;;;;;;5067719;28;20495;-66
2023/12/09 09:18:15;;;;;;;20.80;11.07;;;6.30;99.90;;;;;;5068787;28;20412;-65
2023/12/09 09:20:42;;;;;;;23.25;11.13;;;6.40;99.90;;;;;;5068244;28;20043;-66
2023/12/09 09:23:09;;;;;;;19.95;10.02;;;6.40;99.90;;;;;;5068343;28;20061;-66
2023/12/09 09:25:35;;;;;;;25.60;12.00;;;6.40;99.90;;;;;;5046669;28;20029;-66
2023/12/09 09:28:02;;;;;;;27.98;11.93;;;6.50;99.90;;;;;;5044429;28;20028;-66
2023/12/09 09:30:29;;;;;;;23.17;11.13;;;6.40;99.90;;;;;;5048024;28;20033;-66
2023/12/09 09:32:55;;;;;;;26.92;11.60;;;6.30;99.90;;;;;;5048254;28;20040;-66
2023/12/09 09:35:20;;;;;;;24.50;12.18;;;6.30;99.90;;;;;;5047760;28;20041;-65
2023/12/09 09:37:47;;;;;;;27.58;12.02;;;6.20;99.90;;;;;;5048212;28;20033;-66
2023/12/09 09:40:14;;;;;;;26.70;11.80;;;6.10;99.90;;;;;;5048068;28;20033;-66
2023/12/09 09:42:50;;;;;;;29.25;12.07;;;6.10;99.90;;;;;;5047535;28;20060;-66
2023/12/09 09:45:26;;;;;;;25.73;11.52;;;6.20;99.90;;;;;;5047878;28;20436;-66
2023/12/09 09:47:54;;;;;;;26.00;11.32;;;6.10;99.90;;;;;;5047682;28;20660;-66
2023/12/09 09:50:22;;;;;;;28.27;11.55;;;6.00;99.90;;;;;;5042063;28;20047;-66
2023/12/09 09:52:49;;;;;;;24.85;10.10;;;6.10;99.90;;;;;;5047756;28;20065;-66
2023/12/09 09:55:17;;;;;;;26.33;10.85;;;6.20;99.90;;;;;;5048382;28;20067;-66
2023/12/09 09:57:43;;;;;;;23.10;11.15;;;6.30;99.90;;;;;;5047248;28;20033;-66
2023/12/09 10:00:14;;;;;;;24.88;10.98;;;6.40;99.90;;;;;;5042808;28;20508;-66
2023/12/09 10:02:44;;;;;;;24.33;11.13;;;6.40;99.90;;;;;;5047152;28;20029;-66
2023/12/09 10:05:12;;;;;;;21.83;10.05;;;6.50;99.90;;;;;;5047922;28;20065;-66
2023/12/09 10:07:39;;;;;;;21.02;10.27;;;6.50;99.90;;;;;;5047477;28;20036;-66
2023/12/09 10:10:10;;;;;;;20.38;10.02;;;6.40;99.90;;;;;;5047167;28;20046;-66
2023/12/09 10:12:36;;;;;;;24.63;10.88;;;6.40;99.90;;;;;;5047200;28;20037;-67
2023/12/09 10:15:03;;;;;;;21.05;8.73;;;6.40;99.90;;;;;;5047499;28;20035;-66
2023/12/09 10:17:33;;;;;;;17.38;8.95;;;6.40;99.90;;;;;;5046771;28;20039;-66
2023/12/09 10:19:59;;;;;;;23.50;8.73;;;6.50;99.90;;;;;;5045923;28;20067;-66
2023/12/09 10:22:26;;;;;;;23.88;8.68;;;6.60;99.90;;;;;;5046894;28;20029;-66
2023/12/09 10:24:52;;;;;;;21.15;9.57;;;6.70;99.90;;;;;;5063818;28;20036;-66
2023/12/09 10:27:23;;;;;;;17.30;8.75;;;6.80;99.90;;;;;;5067245;28;20504;-66
2023/12/09 10:29:50;;;;;;;19.13;8.75;;;6.80;99.90;;;;;;5067099;28;20036;-66
2023/12/09 10:32:16;;;;;;;17.00;8.10;;;6.80;99.90;;;;;;5067164;28;20039;-66
2023/12/09 10:34:42;;;;;;;22.48;9.00;;;6.90;99.90;;;;;;5067294;28;20040;-66
2023/12/09 10:37:09;;;;;;;14.63;8.35;;;6.90;99.90;;;;;;5067179;28;20127;-66
2023/12/09 10:39:35;;;;;;;18.08;9.10;;;7.00;99.90;;;;;;5067224;28;20039;-66
2023/12/09 10:42:04;;;;;;;18.73;8.57;;;7.00;99.90;;;;;;5066431;28;20032;-66
2023/12/09 10:44:31;;;;;;;17.90;8.73;;;7.00;99.90;;;;;;5067242;28;20496;-66
2023/12/09 10:46:56;;;;;;;23.83;10.02;;;7.00;99.90;;;;;;5066607;28;20124;-66
2023/12/09 10:49:22;;;;;;;17.15;7.68;;;7.00;99.90;;;;;;5066548;28;20111;-66
2023/12/09 10:51:48;;;;;;;22.20;9.18;;;7.10;99.90;;;;;;5066645;28;20507;-67
2023/12/09 10:54:14;;;;;;;22.27;9.57;;;7.10;99.90;;;;;;5066215;28;20032;-66
2023/12/09 10:56:40;;;;;;;19.52;9.30;;;7.20;99.90;;;;;;5065583;28;20028;-66
2023/12/09 10:59:08;;;;;;;20.08;9.40;;;7.30;99.90;;;;;;5058378;28;20021;-67
2023/12/09 11:01:34;;;;;;;18.48;8.13;;;7.30;99.90;;;;;;5044954;28;20848;-66
2023/12/09 11:04:03;;;;;;;21.38;9.70;;;7.40;99.90;;;;;;5046108;28;20032;-67
2023/12/09 11:06:34;;;;;;;18.60;8.75;;;7.40;99.90;;;;;;5049217;28;20044;-70
2023/12/09 11:09:01;;;;;;;20.48;8.88;;;7.40;99.90;;;;;;5045842;28;20032;-67
2023/12/09 11:11:28;;;;;;;19.15;8.85;;;7.40;99.90;;;;;;5046323;28;20029;-68
2023/12/09 11:13:54;;;;;;;20.08;9.07;;;7.50;99.90;;;;;;5045991;28;20055;-67
2023/12/09 11:16:23;;;;;;;20.05;9.10;;;7.60;99.90;;;;;;5046319;28;20037;-66
2023/12/09 11:18:57;;;;;;;21.25;9.43;;;7.50;99.90;;;;;;5046193;28;20037;-66
2023/12/09 11:21:28;;;;;;;18.38;9.02;;;7.60;99.90;;;;;;5045913;28;20140;-66
2023/12/09 11:23:57;;;;;;;20.05;9.07;;;7.60;99.90;;;;;;5032365;28;20036;-67
2023/12/09 11:26:29;;;;;;;20.95;10.18;;;7.60;99.90;;;;;;5038041;28;20035;-67
2023/12/09 11:29:04;;;;;;;21.23;8.80;;;7.60;99.90;;;;;;5045173;28;20029;-67
2023/12/09 11:31:37;;;;;;;20.60;9.27;;;7.70;99.90;;;;;;5045355;28;20025;-66
2023/12/09 11:34:07;;;;;;;16.88;8.18;;;7.70;99.90;;;;;;5045477;28;20525;-67
2023/12/09 11:36:38;;;;;;;21.45;9.27;;;7.70;99.90;;;;;;5045016;28;20041;-67
2023/12/09 11:39:10;;;;;;;16.90;8.43;;;7.90;99.90;;;;;;5045324;28;20061;-67
2023/12/09 11:41:37;;;;;;;18.08;8.50;;;7.90;99.90;;;;;;5043647;28;20028;-67
2023/12/09 11:44:03;;;;;;;15.13;8.20;;;8.00;99.90;;;;;;5045422;28;20701;-67
2023/12/09 11:46:33;;;;;;;16.77;7.55;;;8.00;99.90;;;;;;5045648;28;20036;-67
2023/12/09 11:49:00;;;;;;;22.13;8.77;;;8.10;99.90;;;;;;5045206;28;20032;-66
2023/12/09 11:51:27;;;;;;;17.92;8.23;;;8.10;99.90;;;;;;5045144;28;20098;-66
2023/12/09 11:54:02;;;;;;;16.45;8.07;;;8.10;99.90;;;;;;5045371;28;20037;-67
2023/12/09 11:56:28;;;;;;;16.63;8.25;;;8.20;99.90;;;;;;5044362;28;20082;-67
2023/12/09 11:58:55;;;;;;;18.15;8.05;;;8.20;99.90;;;;;;5045039;28;20056;-67
2023/12/09 12:01:21;;;;;;;15.60;7.47;;;8.20;99.90;;;;;;5045354;28;20107;-67
2023/12/09 12:03:48;;;;;;;14.93;8.63;;;8.20;99.90;;;;;;5043951;28;20556;-66
2023/12/09 12:06:16;;;;;;;13.57;7.25;;;8.20;99.90;;;;;;5045478;28;20031;-67
2023/12/09 12:08:51;;;;;;;17.75;8.25;;;8.30;99.90;;;;;;5036812;28;20029;-66
2023/12/09 12:11:20;;;;;;;15.50;8.00;;;8.30;99.90;;;;;;5044941;28;20112;-66
2023/12/09 12:13:47;;;;;;;15.32;7.50;;;8.30;99.90;;;;;;5044554;28;20060;-66
2023/12/09 12:16:13;;;;;;;14.30;7.55;;;8.30;99.90;;;;;;5045187;28;20033;-66
2023/12/09 12:18:40;;;;;;;14.82;7.10;;;8.20;99.90;;;;;;5044811;28;20053;-66
2023/12/09 12:21:07;;;;;;;13.05;7.03;;;8.20;99.90;;;;;;5044763;28;20039;-66
2023/12/09 12:23:33;;;;;;;15.30;7.15;;;8.20;99.90;;;;;;5044946;28;20032;-66
2023/12/09 12:25:59;;;;;;;12.07;7.28;;;8.20;99.90;;;;;;5046200;28;20039;-64
2023/12/09 12:28:26;;;;;;;12.88;6.22;;;8.10;99.90;;;;;;5044844;28;20090;-66
2023/12/09 12:30:52;;;;;;;14.43;6.15;;;8.10;99.90;;;;;;5044729;28;20136;-67
2023/12/09 12:33:22;;;;;;;13.85;6.40;;;8.00;99.90;;;;;;5045299;28;20033;-66
2023/12/09 12:35:53;;;;;;;14.82;5.72;;;8.00;99.90;;;;;;5045023;28;20041;-67